Arrington Corner, Kentucky
Current Conditions -  °F | °C
As of 6:56 PM on Tuesday 21 Oct 2014 (Local Time) from KOWB Reporting Station
Clear Clear  
Wind Chill: 57°   Ceiling: Unl
Heat Index: 57°   Visibility: 10mi
Dew Point: 42°   Wind: 7mph
Humidity: 57%   Direction: 40°NE
Pressure: 30.12"   Gusts: NA
Location:  37.8331°N, 86.7635°W
Report Text: KOWB 212356Z 04006KT 10SM CLR 14/06 A3012 RMK AO2 53011 T01380055 10188 20138 SLP201
Loading
Personal Weather Stations






























Interactive Weather Map New forecast layout! Learn more

10-Day Weather Forecast

Advertisements
Track Severe Weather on mobile